sensor_id;sensor_type;location;lat;lon;timestamp;pressure;altitude;pressure_sealevel;temperature;humidity
7824;BME280;3957;48.61947800;9.05303100;2024-01-07T00:00:33;95383.50;;;1.74;100.00
7824;BME280;3957;48.61947800;9.05303100;2024-01-07T00:01:35;95379.84;;;1.75;100.00
7824;BME280;3957;48.61947800;9.05303100;2024-01-07T00:02:37;95382.00;;;1.80;100.00
7824;BME280;3957;48.61947800;9.05303100;2024-01-07T00:03:41;95382.00;;;1.80;100.00
7824;BME280;3957;48.61947800;9.05303100;2024-01-07T00:04:46;95376.56;;;1.81;100.00
7824;BME280;3957;48.61947800;9.05303100;2024-01-07T00:05:48;95379.22;;;1.81;100.00
7824;BME280;3957;48.61947800;9.05303100;2024-01-07T00:06:49;95376.56;;;1.81;100.00
7824;BME280;3957;48.61947800;9.05303100;2024-01-07T00:07:51;95383.63;;;1.81;100.00
7824;BME280;3957;48.61947800;9.05303100;2024-01-07T00:08:53;95384.47;;;1.81;100.00
7824;BME280;3957;48.61947800;9.05303100;2024-01-07T00:09:54;95379.03;;;1.83;100.00
7824;BME280;3957;48.61947800;9.05303100;2024-01-07T00:10:56;95380.88;;;1.82;100.00
7824;BME280;3957;48.61947800;9.05303100;2024-01-07T00:11:58;95383.16;;;1.85;100.00
7824;BME280;3957;48.61947800;9.05303100;2024-01-07T00:13:00;95385.81;;;1.85;100.00
7824;BME280;3957;48.61947800;9.05303100;2024-01-07T00:14:02;95383.97;;;1.86;100.00
7824;BME280;3957;48.61947800;9.05303100;2024-01-07T00:15:04;95378.69;;;1.86;100.00
7824;BME280;3957;48.61947800;9.05303100;2024-01-07T00:16:06;95376.22;;;1.84;100.00
7824;BME280;3957;48.61947800;9.05303100;2024-01-07T00:17:08;95377.88;;;1.85;100.00
7824;BME280;3957;48.61947800;9.05303100;2024-01-07T00:18:10;95384.16;;;1.84;100.00
7824;BME280;3957;48.61947800;9.05303100;2024-01-07T00:19:12;95382.31;;;1.85;100.00
7824;BME280;3957;48.61947800;9.05303100;2024-01-07T00:20:13;95382.50;;;1.83;100.00
7824;BME280;3957;48.61947800;9.05303100;2024-01-07T00:21:15;95382.50;;;1.83;100.00
7824;BME280;3957;48.61947800;9.05303100;2024-01-07T00:22:17;95387.75;;;1.83;100.00
7824;BME280;3957;48.61947800;9.05303100;2024-01-07T00:23:19;95387.75;;;1.83;100.00
7824;BME280;3957;48.61947800;9.05303100;2024-01-07T00:24:21;95391.41;;;1.82;100.00
7824;BME280;3957;48.61947800;9.05303100;2024-01-07T00:25:23;95389.41;;;1.84;100.00
7824;BME280;3957;48.61947800;9.05303100;2024-01-07T00:26:25;95383.00;;;1.87;100.00
7824;BME280;3957;48.61947800;9.05303100;2024-01-07T00:27:26;95383.97;;;1.86;100.00
7824;BME280;3957;48.61947800;9.05303100;2024-01-07T00:28:28;95382.19;;;1.86;100.00
7824;BME280;3957;48.61947800;9.05303100;2024-01-07T00:29:30;95383.16;;;1.85;100.00
7824;BME280;3957;48.61947800;9.05303100;2024-01-07T00:30:32;95385.47;;;1.89;100.00
7824;BME280;3957;48.61947800;9.05303100;2024-01-07T00:31:34;95376.56;;;1.90;100.00
7824;BME280;3957;48.61947800;9.05303100;2024-01-07T00:32:35;95376.72;;;1.88;100.00
7824;BME280;3957;48.61947800;9.05303100;2024-01-07T00:33:37;95384.81;;;1.86;100.00
7824;BME280;3957;48.61947800;9.05303100;2024-01-07T00:34:39;95387.13;;;1.90;100.00
7824;BME280;3957;48.61947800;9.05303100;2024-01-07T00:35:42;95381.66;;;1.91;100.00
7824;BME280;3957;48.61947800;9.05303100;2024-01-07T00:36:43;95386.94;;;1.91;100.00
7824;BME280;3957;48.61947800;9.05303100;2024-01-07T00:37:45;95386.78;;;1.93;100.00
7824;BME280;3957;48.61947800;9.05303100;2024-01-07T00:38:46;95389.41;;;1.93;100.00
7824;BME280;3957;48.61947800;9.05303100;2024-01-07T00:39:48;95389.25;;;1.94;100.00
7824;BME280;3957;48.61947800;9.05303100;2024-01-07T00:40:50;95382.16;;;1.95;100.00
7824;BME280;3957;48.61947800;9.05303100;2024-01-07T00:41:51;95383.97;;;1.94;100.00
7824;BME280;3957;48.61947800;9.05303100;2024-01-07T00:42:53;95382.16;;;1.95;100.00
7824;BME280;3957;48.61947800;9.05303100;2024-01-07T00:43:54;95386.59;;;1.94;100.00
7824;BME280;3957;48.61947800;9.05303100;2024-01-07T00:44:56;95383.16;;;1.94;100.00
7824;BME280;3957;48.61947800;9.05303100;2024-01-07T00:45:58;95375.22;;;1.94;100.00
7824;BME280;3957;48.61947800;9.05303100;2024-01-07T00:46:59;95378.84;;;1.93;100.00
7824;BME280;3957;48.61947800;9.05303100;2024-01-07T00:48:01;95382.47;;;1.92;100.00
7824;BME280;3957;48.61947800;9.05303100;2024-01-07T00:49:03;95384.13;;;1.93;100.00
7824;BME280;3957;48.61947800;9.05303100;2024-01-07T00:50:05;95379.03;;;1.91;100.00
7824;BME280;3957;48.61947800;9.05303100;2024-01-07T00:51:07;95387.13;;;1.90;100.00
7824;BME280;3957;48.61947800;9.05303100;2024-01-07T00:52:08;95380.34;;;1.87;100.00
7824;BME280;3957;48.61947800;9.05303100;2024-01-07T00:53:10;95378.69;;;1.86;100.00
7824;BME280;3957;48.61947800;9.05303100;2024-01-07T00:54:12;95381.50;;;1.84;100.00
7824;BME280;3957;48.61947800;9.05303100;2024-01-07T00:55:14;95375.25;;;1.85;100.00
7824;BME280;3957;48.61947800;9.05303100;2024-01-07T00:56:15;95380.34;;;1.87;100.00
7824;BME280;3957;48.61947800;9.05303100;2024-01-07T00:57:17;95373.25;;;1.87;100.00
7824;BME280;3957;48.61947800;9.05303100;2024-01-07T00:58:19;95382.19;;;1.86;100.00
7824;BME280;3957;48.61947800;9.05303100;2024-01-07T00:59:20;95379.53;;;1.86;100.00
7824;BME280;3957;48.61947800;9.05303100;2024-01-07T01:00:22;95373.41;;;1.86;100.00
7824;BME280;3957;48.61947800;9.05303100;2024-01-07T01:01:24;95383.00;;;1.87;100.00
7824;BME280;3957;48.61947800;9.05303100;2024-01-07T01:02:25;95385.81;;;1.85;100.00
7824;BME280;3957;48.61947800;9.05303100;2024-01-07T01:03:27;95384.47;;;1.90;100.00
7824;BME280;3957;48.61947800;9.05303100;2024-01-07T01:04:29;95384.31;;;1.91;100.00
7824;BME280;3957;48.61947800;9.05303100;2024-01-07T01:05:31;95386.28;;;1.89;100.00
7824;BME280;3957;48.61947800;9.05303100;2024-01-07T01:06:32;95383.00;;;1.87;100.00
7824;BME280;3957;48.61947800;9.05303100;2024-01-07T01:07:34;95387.47;;;1.86;100.00
7824;BME280;3957;48.61947800;9.05303100;2024-01-07T01:08:36;95387.47;;;1.86;100.00
7824;BME280;3957;48.61947800;9.05303100;2024-01-07T01:09:37;95385.63;;;1.87;100.00
7824;BME280;3957;48.61947800;9.05303100;2024-01-07T01:10:39;95381.34;;;1.86;100.00
7824;BME280;3957;48.61947800;9.05303100;2024-01-07T01:11:40;95379.84;;;1.83;100.00
7824;BME280;3957;48.61947800;9.05303100;2024-01-07T01:12:42;95382.19;;;1.86;100.00
7824;BME280;3957;48.61947800;9.05303100;2024-01-07T01:13:44;95386.13;;;1.91;100.00
7824;BME280;3957;48.61947800;9.05303100;2024-01-07T01:14:46;95387.94;;;1.90;100.00
7824;BME280;3957;48.61947800;9.05303100;2024-01-07T01:15:48;95389.41;;;1.93;100.00
7824;BME280;3957;48.61947800;9.05303100;2024-01-07T01:16:50;95383.31;;;1.92;100.00
7824;BME280;3957;48.61947800;9.05303100;2024-01-07T01:17:52;95383.31;;;1.92;100.00
7824;BME280;3957;48.61947800;9.05303100;2024-01-07T01:18:54;95391.06;;;1.94;100.00
7824;BME280;3957;48.61947800;9.05303100;2024-01-07T01:19:55;95393.03;;;1.92;100.00
7824;BME280;3957;48.61947800;9.05303100;2024-01-07T01:20:57;95387.09;;;1.98;100.00
7824;BME280;3957;48.61947800;9.05303100;2024-01-07T01:21:59;95389.75;;;1.98;100.00
7824;BME280;3957;48.61947800;9.05303100;2024-01-07T01:23:00;95390.91;;;1.95;100.00
7824;BME280;3957;48.61947800;9.05303100;2024-01-07T01:24:02;95388.91;;;1.97;100.00
7824;BME280;3957;48.61947800;9.05303100;2024-01-07T01:25:04;95396.97;;;1.96;100.00
7824;BME280;3957;48.61947800;9.05303100;2024-01-07T01:26:06;95387.28;;;1.96;100.00
7824;BME280;3957;48.61947800;9.05303100;2024-01-07T01:27:08;95397.50;;;1.99;100.00
7824;BME280;3957;48.61947800;9.05303100;2024-01-07T01:28:09;95396.66;;;1.99;100.00
7824;BME280;3957;48.61947800;9.05303100;2024-01-07T01:29:11;95388.91;;;1.97;100.00
7824;BME280;3957;48.61947800;9.05303100;2024-01-07T01:30:13;95392.22;;;1.99;100.00
7824;BME280;3957;48.61947800;9.05303100;2024-01-07T01:31:15;95389.06;;;1.96;100.00
7824;BME280;3957;48.61947800;9.05303100;2024-01-07T01:32:17;95390.03;;;2.03;100.00
7824;BME280;3957;48.61947800;9.05303100;2024-01-07T01:33:19;95391.69;;;2.04;100.00
7824;BME280;3957;48.61947800;9.05303100;2024-01-07T01:34:21;95392.03;;;2.01;100.00
7824;BME280;3957;48.61947800;9.05303100;2024-01-07T01:35:23;95397.50;;;1.99;100.00
7824;BME280;3957;48.61947800;9.05303100;2024-01-07T01:36:25;95398.63;;;1.97;100.00
7824;BME280;3957;48.61947800;9.05303100;2024-01-07T01:37:27;95391.88;;;2.02;100.00
7824;BME280;3957;48.61947800;9.05303100;2024-01-07T01:38:29;95398.13;;;2.01;100.00
7824;BME280;3957;48.61947800;9.05303100;2024-01-07T01:39:30;95401.59;;;2.02;100.00
7824;BME280;3957;48.61947800;9.05303100;2024-01-07T01:40:32;95395.50;;;2.01;100.00
7824;BME280;3957;48.61947800;9.05303100;2024-01-07T01:41:33;95396.50;;;2.00;100.00
7824;BME280;3957;48.61947800;9.05303100;2024-01-07T01:42:35;95398.47;;;1.98;100.00
7824;BME280;3957;48.61947800;9.05303100;2024-01-07T01:43:37;95395.66;;;2.00;100.00
7824;BME280;3957;48.61947800;9.05303100;2024-01-07T01:44:38;95404.41;;;2.00;100.00
7824;BME280;3957;48.61947800;9.05303100;2024-01-07T01:45:40;95400.94;;;2.00;100.00
7824;BME280;3957;48.61947800;9.05303100;2024-01-07T01:46:41;95399.44;;;2.06;100.00
7824;BME280;3957;48.61947800;9.05303100;2024-01-07T01:47:46;95398.13;;;2.10;100.00
7824;BME280;3957;48.61947800;9.05303100;2024-01-07T01:48:49;95394.84;;;2.08;100.00
7824;BME280;3957;48.61947800;9.05303100;2024-01-07T01:49:51;95392.03;;;2.01;100.00
7824;BME280;3957;48.61947800;9.05303100;2024-01-07T01:50:54;95397.66;;;1.98;100.00
7824;BME280;3957;48.61947800;9.05303100;2024-01-07T01:52:00;95403.75;;;1.98;100.00
7824;BME280;3957;48.61947800;9.05303100;2024-01-07T01:53:01;95401.28;;;1.97;100.00
7824;BME280;3957;48.61947800;9.05303100;2024-01-07T01:54:03;95394.00;;;1.99;100.00
7824;BME280;3957;48.61947800;9.05303100;2024-01-07T01:55:06;95400.28;;;1.98;100.00
7824;BME280;3957;48.61947800;9.05303100;2024-01-07T01:56:09;95395.50;;;2.01;100.00
7824;BME280;3957;48.61947800;9.05303100;2024-01-07T01:57:17;95399.94;;;2.17;100.00
7824;BME280;3957;48.61947800;9.05303100;2024-01-07T01:58:21;95398.81;;;2.03;100.00
7824;BME280;3957;48.61947800;9.05303100;2024-01-07T01:59:25;95396.97;;;2.12;100.00
7824;BME280;3957;48.61947800;9.05303100;2024-01-07T02:00:27;95392.53;;;2.04;100.00
7824;BME280;3957;48.61947800;9.05303100;2024-01-07T02:01:30;95392.84;;;2.01;100.00
7824;BME280;3957;48.61947800;9.05303100;2024-01-07T02:02:32;95392.03;;;2.01;100.00
7824;BME280;3957;48.61947800;9.05303100;2024-01-07T02:03:36;95392.22;;;1.99;100.00
7824;BME280;3957;48.61947800;9.05303100;2024-01-07T02:04:37;95398.81;;;1.95;100.00
7824;BME280;3957;48.61947800;9.05303100;2024-01-07T02:05:39;95396.97;;;1.96;100.00
7824;BME280;3957;48.61947800;9.05303100;2024-01-07T02:06:42;95399.44;;;1.97;100.00
7824;BME280;3957;48.61947800;9.05303100;2024-01-07T02:07:44;95394.50;;;1.94;100.00
7824;BME280;3957;48.61947800;9.05303100;2024-01-07T02:08:45;95398.97;;;1.94;100.00
7824;BME280;3957;48.61947800;9.05303100;2024-01-07T02:09:47;95397.16;;;1.94;100.00
7824;BME280;3957;48.61947800;9.05303100;2024-01-07T02:10:50;95396.16;;;1.95;100.00
7824;BME280;3957;48.61947800;9.05303100;2024-01-07T02:12:04;95389.56;;;1.99;100.00
7824;BME280;3957;48.61947800;9.05303100;2024-01-07T02:13:06;95396.50;;;2.00;100.00
7824;BME280;3957;48.61947800;9.05303100;2024-01-07T02:14:09;95396.50;;;2.00;100.00
7824;BME280;3957;48.61947800;9.05303100;2024-01-07T02:15:10;95400.28;;;1.98;100.00
7824;BME280;3957;48.61947800;9.05303100;2024-01-07T02:16:12;95402.75;;;1.99;100.00
7824;BME280;3957;48.61947800;9.05303100;2024-01-07T02:17:14;95399.63;;;1.96;100.00
7824;BME280;3957;48.61947800;9.05303100;2024-01-07T02:18:16;95404.56;;;1.99;100.00
7824;BME280;3957;48.61947800;9.05303100;2024-01-07T02:19:20;95401.91;;;1.99;100.00
7824;BME280;3957;48.61947800;9.05303100;2024-01-07T02:20:22;95402.41;;;2.02;100.00
7824;BME280;3957;48.61947800;9.05303100;2024-01-07T02:21:23;95403.22;;;2.03;100.00
7824;BME280;3957;48.61947800;9.05303100;2024-01-07T02:22:25;95403.56;;;2.00;100.00
7824;BME280;3957;48.61947800;9.05303100;2024-01-07T02:23:26;95399.28;;;1.99;100.00
7824;BME280;3957;48.61947800;9.05303100;2024-01-07T02:24:28;95404.56;;;1.99;100.00
7824;BME280;3957;48.61947800;9.05303100;2024-01-07T02:25:37;95390.72;;;2.05;100.00
7824;BME280;3957;48.61947800;9.05303100;2024-01-07T02:26:39;95404.06;;;2.03;100.00
7824;BME280;3957;48.61947800;9.05303100;2024-01-07T02:27:41;95395.47;;;2.10;100.00
7824;BME280;3957;48.61947800;9.05303100;2024-01-07T02:28:42;95393.00;;;2.08;100.00
7824;BME280;3957;48.61947800;9.05303100;2024-01-07T02:29:44;95403.75;;;1.98;100.00
7824;BME280;3957;48.61947800;9.05303100;2024-01-07T02:30:45;95400.28;;;1.98;100.00
7824;BME280;3957;48.61947800;9.05303100;2024-01-07T02:31:47;95410.00;;;1.97;100.00
7824;BME280;3957;48.61947800;9.05303100;2024-01-07T02:32:49;95394.69;;;2.01;100.00
7824;BME280;3957;48.61947800;9.05303100;2024-01-07T02:33:51;95410.19;;;1.96;100.00
7824;BME280;3957;48.61947800;9.05303100;2024-01-07T02:34:52;95407.06;;;1.92;100.00
7824;BME280;3957;48.61947800;9.05303100;2024-01-07T02:35:54;95400.75;;;2.01;100.00
7824;BME280;3957;48.61947800;9.05303100;2024-01-07T02:36:57;95402.94;;;1.98;100.00
7824;BME280;3957;48.61947800;9.05303100;2024-01-07T02:37:59;95403.75;;;1.98;100.00
7824;BME280;3957;48.61947800;9.05303100;2024-01-07T02:39:01;95406.91;;;1.94;100.00
7824;BME280;3957;48.61947800;9.05303100;2024-01-07T02:40:03;95409.72;;;1.92;100.00
7824;BME280;3957;48.61947800;9.05303100;2024-01-07T02:41:05;95403.75;;;1.90;100.00
7824;BME280;3957;48.61947800;9.05303100;2024-01-07T02:42:06;95403.94;;;1.89;100.00
7824;BME280;3957;48.61947800;9.05303100;2024-01-07T02:43:08;95406.91;;;1.94;100.00
7824;BME280;3957;48.61947800;9.05303100;2024-01-07T02:44:10;95404.25;;;1.94;100.00
7824;BME280;3957;48.61947800;9.05303100;2024-01-07T02:45:13;95399.31;;;1.91;100.00
7824;BME280;3957;48.61947800;9.05303100;2024-01-07T02:46:15;95402.75;;;1.99;100.00
7824;BME280;3957;48.61947800;9.05303100;2024-01-07T02:47:17;95401.78;;;2.00;100.00
7824;BME280;3957;48.61947800;9.05303100;2024-01-07T02:48:18;95402.41;;;2.02;100.00
7824;BME280;3957;48.61947800;9.05303100;2024-01-07T02:49:20;95402.25;;;1.96;100.00
7824;BME280;3957;48.61947800;9.05303100;2024-01-07T02:50:22;95411.34;;;1.93;100.00
7824;BME280;3957;48.61947800;9.05303100;2024-01-07T02:51:23;95401.28;;;1.97;100.00
7824;BME280;3957;48.61947800;9.05303100;2024-01-07T02:52:25;95410.34;;;1.94;100.00
7824;BME280;3957;48.61947800;9.05303100;2024-01-07T02:53:27;95409.53;;;1.94;100.00
7824;BME280;3957;48.61947800;9.05303100;2024-01-07T02:54:28;95409.84;;;1.99;100.00
7824;BME280;3957;48.61947800;9.05303100;2024-01-07T02:55:30;95402.94;;;1.98;100.00
7824;BME280;3957;48.61947800;9.05303100;2024-01-07T02:56:31;95407.88;;;1.93;100.00
7824;BME280;3957;48.61947800;9.05303100;2024-01-07T02:57:33;95404.59;;;1.91;100.00
7824;BME280;3957;48.61947800;9.05303100;2024-01-07T02:58:35;95408.88;;;1.92;100.00
7824;BME280;3957;48.61947800;9.05303100;2024-01-07T02:59:36;95411.84;;;1.89;100.00
7824;BME280;3957;48.61947800;9.05303100;2024-01-07T03:00:38;95409.72;;;1.84;100.00
7824;BME280;3957;48.61947800;9.05303100;2024-01-07T03:01:39;95409.03;;;1.82;100.00
7824;BME280;3957;48.61947800;9.05303100;2024-01-07T03:02:42;95413.00;;;1.86;100.00
7824;BME280;3957;48.61947800;9.05303100;2024-01-07T03:03:44;95408.22;;;1.90;100.00
7824;BME280;3957;48.61947800;9.05303100;2024-01-07T03:04:46;95419.41;;;1.92;100.00
7824;BME280;3957;48.61947800;9.05303100;2024-01-07T03:05:47;95412.19;;;1.94;100.00
7824;BME280;3957;48.61947800;9.05303100;2024-01-07T03:06:50;95413.84;;;1.86;100.00
7824;BME280;3957;48.61947800;9.05303100;2024-01-07T03:07:52;95411.84;;;1.89;100.00
7824;BME280;3957;48.61947800;9.05303100;2024-01-07T03:08:53;95412.50;;;1.91;100.00
7824;BME280;3957;48.61947800;9.05303100;2024-01-07T03:09:56;95415.81;;;1.84;100.00
7824;BME280;3957;48.61947800;9.05303100;2024-01-07T03:10:57;95413.34;;;1.83;100.00
7824;BME280;3957;48.61947800;9.05303100;2024-01-07T03:11:59;95418.59;;;1.83;100.00
7824;BME280;3957;48.61947800;9.05303100;2024-01-07T03:13:01;95415.47;;;1.87;100.00
7824;BME280;3957;48.61947800;9.05303100;2024-01-07T03:14:02;95419.41;;;1.83;100.00
7824;BME280;3957;48.61947800;9.05303100;2024-01-07T03:15:04;95416.31;;;1.88;100.00
7824;BME280;3957;48.61947800;9.05303100;2024-01-07T03:16:07;95415.47;;;1.87;100.00
7824;BME280;3957;48.61947800;9.05303100;2024-01-07T03:17:10;95419.94;;;1.87;100.00
7824;BME280;3957;48.61947800;9.05303100;2024-01-07T03:18:11;95419.25;;;1.85;100.00
7824;BME280;3957;48.61947800;9.05303100;2024-01-07T03:19:13;95421.06;;;1.84;100.00
7824;BME280;3957;48.61947800;9.05303100;2024-01-07T03:20:15;95421.25;;;1.91;100.00
7824;BME280;3957;48.61947800;9.05303100;2024-01-07T03:21:21;95424.69;;;1.92;100.00
7824;BME280;3957;48.61947800;9.05303100;2024-01-07T03:22:23;95422.72;;;1.85;100.00
7824;BME280;3957;48.61947800;9.05303100;2024-01-07T03:23:24;95426.34;;;1.84;100.00
7824;BME280;3957;48.61947800;9.05303100;2024-01-07T03:24:26;95416.47;;;1.86;100.00
7824;BME280;3957;48.61947800;9.05303100;2024-01-07T03:25:28;95426.69;;;1.90;100.00
7824;BME280;3957;48.61947800;9.05303100;2024-01-07T03:26:30;95423.38;;;1.87;100.00
7824;BME280;3957;48.61947800;9.05303100;2024-01-07T03:27:34;95430.16;;;1.82;100.00
7824;BME280;3957;48.61947800;9.05303100;2024-01-07T03:28:35;95423.72;;;1.93;100.00
7824;BME280;3957;48.61947800;9.05303100;2024-01-07T03:29:37;95427.34;;;1.83;100.00
7824;BME280;3957;48.61947800;9.05303100;2024-01-07T03:30:38;95431.47;;;1.78;100.00
7824;BME280;3957;48.61947800;9.05303100;2024-01-07T03:31:40;95425.84;;;1.81;100.00
7824;BME280;3957;48.61947800;9.05303100;2024-01-07T03:32:42;95427.16;;;1.85;100.00
7824;BME280;3957;48.61947800;9.05303100;2024-01-07T03:33:43;95428.34;;;1.74;100.00
7824;BME280;3957;48.61947800;9.05303100;2024-01-07T03:34:45;95426.03;;;1.71;100.00
7824;BME280;3957;48.61947800;9.05303100;2024-01-07T03:35:47;95433.28;;;1.69;100.00
7824;BME280;3957;48.61947800;9.05303100;2024-01-07T03:36:48;95432.31;;;1.70;100.00
7824;BME280;3957;48.61947800;9.05303100;2024-01-07T03:37:50;95437.72;;;1.68;100.00
7824;BME280;3957;48.61947800;9.05303100;2024-01-07T03:38:52;95428.66;;;1.71;100.00
7824;BME280;3957;48.61947800;9.05303100;2024-01-07T03:39:56;95429.34;;;1.73;100.00
7824;BME280;3957;48.61947800;9.05303100;2024-01-07T03:40:57;95426.19;;;1.86;100.00
7824;BME280;3957;48.61947800;9.05303100;2024-01-07T03:41:59;95428.66;;;1.79;100.00
7824;BME280;3957;48.61947800;9.05303100;2024-01-07T03:43:00;95427.34;;;1.75;100.00
7824;BME280;3957;48.61947800;9.05303100;2024-01-07T03:44:02;95430.66;;;1.77;100.00
7824;BME280;3957;48.61947800;9.05303100;2024-01-07T03:45:04;95421.75;;;1.78;100.00
7824;BME280;3957;48.61947800;9.05303100;2024-01-07T03:46:06;95430.47;;;1.79;100.00
7824;BME280;3957;48.61947800;9.05303100;2024-01-07T03:47:08;95430.31;;;1.72;100.00
7824;BME280;3957;48.61947800;9.05303100;2024-01-07T03:48:09;95426.03;;;1.71;100.00
7824;BME280;3957;48.61947800;9.05303100;2024-01-07T03:49:11;95424.69;;;1.67;100.00
7824;BME280;3957;48.61947800;9.05303100;2024-01-07T03:50:13;95432.78;;;1.65;100.00
7824;BME280;3957;48.61947800;9.05303100;2024-01-07T03:51:15;95435.59;;;1.64;100.00
7824;BME280;3957;48.61947800;9.05303100;2024-01-07T03:52:16;95428.00;;;1.69;100.00
7824;BME280;3957;48.61947800;9.05303100;2024-01-07T03:53:18;95426.03;;;1.71;100.00
7824;BME280;3957;48.61947800;9.05303100;2024-01-07T03:54:20;95423.38;;;1.71;100.00
7824;BME280;3957;48.61947800;9.05303100;2024-01-07T03:55:22;95425.19;;;1.70;100.00
7824;BME280;3957;48.61947800;9.05303100;2024-01-07T03:56:23;95428.19;;;1.67;100.00
7824;BME280;3957;48.61947800;9.05303100;2024-01-07T03:57:25;95430.81;;;1.76;100.00
7824;BME280;3957;48.61947800;9.05303100;2024-01-07T03:58:27;95426.03;;;1.71;100.00
7824;BME280;3957;48.61947800;9.05303100;2024-01-07T03:59:28;95430.31;;;1.80;100.00
7824;BME280;3957;48.61947800;9.05303100;2024-01-07T04:00:30;95426.53;;;1.75;100.00
7824;BME280;3957;48.61947800;9.05303100;2024-01-07T04:01:31;95424.06;;;1.73;100.00
7824;BME280;3957;48.61947800;9.05303100;2024-01-07T04:02:33;95429.50;;;1.72;100.00
7824;BME280;3957;48.61947800;9.05303100;2024-01-07T04:03:35;95433.75;;;1.73;100.00
7824;BME280;3957;48.61947800;9.05303100;2024-01-07T04:04:37;95437.59;;;1.70;100.00
7824;BME280;3957;48.61947800;9.05303100;2024-01-07T04:05:39;95430.47;;;1.70;100.00
7824;BME280;3957;48.61947800;9.05303100;2024-01-07T04:06:41;95425.38;;;1.77;100.00
7824;BME280;3957;48.61947800;9.05303100;2024-01-07T04:07:43;95434.94;;;1.78;100.00
7824;BME280;3957;48.61947800;9.05303100;2024-01-07T04:08:44;95431.28;;;1.79;100.00
7824;BME280;3957;48.61947800;9.05303100;2024-01-07T04:09:46;95431.13;;;1.73;100.00
7824;BME280;3957;48.61947800;9.05303100;2024-01-07T04:10:48;95437.41;;;1.72;100.00
7824;BME280;3957;48.61947800;9.05303100;2024-01-07T04:11:50;95439.88;;;1.73;100.00
7824;BME280;3957;48.61947800;9.05303100;2024-01-07T04:12:52;95437.59;;;1.70;100.00
7824;BME280;3957;48.61947800;9.05303100;2024-01-07T04:13:54;95430.97;;;1.66;100.00
7824;BME280;3957;48.61947800;9.05303100;2024-01-07T04:14:55;95435.94;;;1.69;100.00
7824;BME280;3957;48.61947800;9.05303100;2024-01-07T04:15:57;95433.44;;;1.67;100.00
7824;BME280;3957;48.61947800;9.05303100;2024-01-07T04:16:58;95443.50;;;1.72;100.00
7824;BME280;3957;48.61947800;9.05303100;2024-01-07T04:18:03;95436.91;;;1.76;100.00
7824;BME280;3957;48.61947800;9.05303100;2024-01-07T04:19:06;95440.06;;;1.80;100.00
7824;BME280;3957;48.61947800;9.05303100;2024-01-07T04:20:08;95439.38;;;1.78;100.00
7824;BME280;3957;48.61947800;9.05303100;2024-01-07T04:21:10;95434.44;;;1.75;100.00
7824;BME280;3957;48.61947800;9.05303100;2024-01-07T04:22:11;95444.00;;;1.76;100.00
7824;BME280;3957;48.61947800;9.05303100;2024-01-07T04:23:13;95444.19;;;1.82;100.00
7824;BME280;3957;48.61947800;9.05303100;2024-01-07T04:24:15;95443.34;;;1.82;100.00
7824;BME280;3957;48.61947800;9.05303100;2024-01-07T04:25:17;95443.50;;;1.80;100.00
7824;BME280;3957;48.61947800;9.05303100;2024-01-07T04:26:18;95444.81;;;1.76;100.00
7824;BME280;3957;48.61947800;9.05303100;2024-01-07T04:27:20;95440.53;;;1.75;100.00
7824;BME280;3957;48.61947800;9.05303100;2024-01-07T04:28:21;95442.19;;;1.76;100.00
7824;BME280;3957;48.61947800;9.05303100;2024-01-07T04:29:23;95448.44;;;1.75;100.00
7824;BME280;3957;48.61947800;9.05303100;2024-01-07T04:30:24;95444.00;;;1.67;100.00
7824;BME280;3957;48.61947800;9.05303100;2024-01-07T04:31:26;95451.25;;;1.65;100.00
7824;BME280;3957;48.61947800;9.05303100;2024-01-07T04:32:28;95449.59;;;1.73;100.00
7824;BME280;3957;48.61947800;9.05303100;2024-01-07T04:33:30;95449.75;;;1.71;100.00
7824;BME280;3957;48.61947800;9.05303100;2024-01-07T04:34:31;95443.50;;;1.64;100.00
7824;BME280;3957;48.61947800;9.05303100;2024-01-07T04:35:33;95450.59;;;1.63;100.00
7824;BME280;3957;48.61947800;9.05303100;2024-01-07T04:36:35;95450.94;;;1.60;100.00
7824;BME280;3957;48.61947800;9.05303100;2024-01-07T04:37:37;95440.50;;;1.59;100.00
7824;BME280;3957;48.61947800;9.05303100;2024-01-07T04:38:39;95454.72;;;1.74;100.00
7824;BME280;3957;48.61947800;9.05303100;2024-01-07T04:39:40;95446.94;;;1.73;100.00
7824;BME280;3957;48.61947800;9.05303100;2024-01-07T04:40:42;95443.66;;;1.62;100.00
7824;BME280;3957;48.61947800;9.05303100;2024-01-07T04:41:43;95449.75;;;1.55;100.00
7824;BME280;3957;48.61947800;9.05303100;2024-01-07T04:42:45;95449.63;;;1.64;100.00
7824;BME280;3957;48.61947800;9.05303100;2024-01-07T04:43:47;95447.63;;;1.58;100.00
7824;BME280;3957;48.61947800;9.05303100;2024-01-07T04:44:48;95454.72;;;1.58;100.00
7824;BME280;3957;48.61947800;9.05303100;2024-01-07T04:45:50;95458.16;;;1.58;100.00
7824;BME280;3957;48.61947800;9.05303100;2024-01-07T04:46:51;95453.53;;;1.68;100.00
7824;BME280;3957;48.61947800;9.05303100;2024-01-07T04:47:53;95455.19;;;1.61;100.00
7824;BME280;3957;48.61947800;9.05303100;2024-01-07T04:48:54;95450.44;;;1.65;100.00
7824;BME280;3957;48.61947800;9.05303100;2024-01-07T04:49:57;95458.34;;;1.57;100.00
7824;BME280;3957;48.61947800;9.05303100;2024-01-07T04:50:59;95460.47;;;1.53;100.00
7824;BME280;3957;48.61947800;9.05303100;2024-01-07T04:52:01;95460.00;;;1.58;100.00
7824;BME280;3957;48.61947800;9.05303100;2024-01-07T04:53:03;95467.72;;;1.59;100.00
7824;BME280;3957;48.61947800;9.05303100;2024-01-07T04:54:04;95464.13;;;1.60;100.00
7824;BME280;3957;48.61947800;9.05303100;2024-01-07T04:55:07;95465.25;;;1.58;100.00
7824;BME280;3957;48.61947800;9.05303100;2024-01-07T04:56:11;95468.53;;;1.51;100.00